Time;durP1;ratioP1;P1;durP2;ratioP2;P2;SDS_P1;SDS_P2;PMS_P1;PMS_P2;Temp;Humidity;BMP_temperature;BMP_pressure;BME280_temperature;BME280_humidity;BME280_pressure;Samples;Min_cycle;Max_cycle;Signal;HPM_P1;HPM_P2
2021/01/26 00:00:54;;;;;;;10.68;9.57;;;1.90;73.30;;;;;;5027803;28;20037;-74
2021/01/26 00:03:21;;;;;;;11.70;10.35;;;1.90;73.30;;;;;;5045615;28;20037;-75
2021/01/26 00:05:47;;;;;;;16.15;10.73;;;1.90;73.30;;;;;;5045382;28;20444;-74
2021/01/26 00:08:14;;;;;;;10.88;9.73;;;1.80;73.10;;;;;;5045821;28;20044;-75
2021/01/26 00:10:40;;;;;;;12.57;10.00;;;1.90;73.30;;;;;;5045627;28;20059;-74
2021/01/26 00:13:08;;;;;;;13.80;9.43;;;1.80;73.10;;;;;;5045722;28;20033;-75
2021/01/26 00:15:34;;;;;;;11.30;9.82;;;1.80;73.20;;;;;;5050028;28;20254;-74
2021/01/26 00:18:01;;;;;;;12.90;10.35;;;1.80;73.20;;;;;;5064979;28;20608;-75
2021/01/26 00:20:27;;;;;;;13.45;9.30;;;1.80;73.20;;;;;;5046064;28;20025;-75
2021/01/26 00:22:53;;;;;;;14.73;9.68;;;1.80;73.20;;;;;;5044308;28;20043;-76
2021/01/26 00:25:27;;;;;;;14.73;9.93;;;1.80;73.20;;;;;;5045835;28;20068;-74
2021/01/26 00:27:56;;;;;;;13.93;9.80;;;1.80;73.20;;;;;;5044228;28;20040;-75
2021/01/26 00:30:30;;;;;;;12.70;9.10;;;1.80;73.20;;;;;;5043180;28;20148;-75
2021/01/26 00:33:00;;;;;;;11.80;9.80;;;1.90;73.40;;;;;;5043762;28;20032;-74
2021/01/26 00:35:29;;;;;;;11.52;9.38;;;1.80;73.20;;;;;;5043208;28;20029;-74
2021/01/26 00:37:56;;;;;;;9.18;7.65;;;1.80;73.20;;;;;;5044143;28;20039;-76
2021/01/26 00:40:22;;;;;;;9.93;8.80;;;1.90;73.30;;;;;;5044064;28;20109;-75
2021/01/26 00:42:48;;;;;;;13.30;8.35;;;1.90;73.30;;;;;;5044451;28;20136;-75
2021/01/26 00:45:20;;;;;;;10.15;8.80;;;1.80;73.20;;;;;;5044752;28;20125;-75
2021/01/26 00:47:46;;;;;;;11.23;8.77;;;1.80;73.20;;;;;;5043750;28;20513;-75
2021/01/26 00:50:13;;;;;;;11.70;9.07;;;1.80;73.20;;;;;;5044146;28;20387;-74
2021/01/26 00:52:39;;;;;;;11.75;9.32;;;1.80;73.20;;;;;;5043371;28;20037;-74
2021/01/26 00:55:14;;;;;;;9.57;8.07;;;1.80;73.20;;;;;;5043442;28;20119;-75
2021/01/26 00:57:40;;;;;;;10.25;8.23;;;1.80;73.20;;;;;;5044373;28;20086;-74
2021/01/26 01:00:14;;;;;;;11.40;8.45;;;1.70;73.00;;;;;;5027029;28;20403;-74
2021/01/26 01:02:40;;;;;;;12.68;7.68;;;1.70;73.00;;;;;;5007737;28;20029;-74
2021/01/26 01:05:08;;;;;;;8.32;7.32;;;1.70;73.00;;;;;;5043010;28;20447;-75
2021/01/26 01:07:34;;;;;;;10.25;8.10;;;1.70;73.10;;;;;;5045302;28;20516;-74
2021/01/26 01:10:00;;;;;;;9.38;7.70;;;1.70;73.10;;;;;;5044869;28;20507;-74
2021/01/26 01:12:26;;;;;;;8.25;7.40;;;1.70;73.10;;;;;;5043827;28;20459;-74
2021/01/26 01:14:52;;;;;;;11.32;8.38;;;1.70;73.20;;;;;;5043250;28;20029;-75
2021/01/26 01:17:18;;;;;;;11.27;8.32;;;1.70;73.20;;;;;;5063035;28;20052;-75
2021/01/26 01:19:44;;;;;;;9.38;7.35;;;1.70;73.20;;;;;;5051363;28;20052;-73
2021/01/26 01:22:10;;;;;;;11.77;7.35;;;1.70;73.20;;;;;;5042436;28;20056;-75
2021/01/26 01:24:35;;;;;;;8.30;7.25;;;1.70;73.70;;;;;;5043123;28;20029;-75
2021/01/26 01:27:02;;;;;;;9.57;6.93;;;1.70;73.20;;;;;;5026987;28;20033;-73
2021/01/26 01:29:31;;;;;;;9.15;7.20;;;1.70;73.20;;;;;;5043263;28;20025;-75
2021/01/26 01:32:00;;;;;;;9.95;7.68;;;1.80;73.40;;;;;;5043203;28;20054;-73
2021/01/26 01:34:26;;;;;;;11.50;8.02;;;1.70;73.20;;;;;;5044038;28;20047;-75
2021/01/26 01:36:53;;;;;;;11.57;6.30;;;1.70;73.20;;;;;;5043041;28;20094;-74
2021/01/26 01:39:19;;;;;;;9.30;6.95;;;1.70;73.20;;;;;;5044481;28;20053;-74
2021/01/26 01:41:45;;;;;;;9.10;5.93;;;1.80;73.40;;;;;;5042455;28;20056;-74
2021/01/26 01:44:11;;;;;;;8.82;6.00;;;1.80;73.40;;;;;;5047640;28;20087;-73
2021/01/26 01:46:45;;;;;;;10.70;6.30;;;1.80;73.40;;;;;;5047159;28;20025;-74
2021/01/26 01:49:17;;;;;;;7.90;6.93;;;1.80;73.40;;;;;;5048220;28;20043;-73
2021/01/26 01:51:43;;;;;;;7.65;6.68;;;1.80;73.40;;;;;;5046563;28;20029;-73
2021/01/26 01:54:22;;;;;;;9.70;6.95;;;1.80;73.30;;;;;;5046489;28;20299;-73
2021/01/26 01:57:07;;;;;;;9.35;6.65;;;1.80;73.30;;;;;;5047503;28;20123;-73
2021/01/26 01:59:41;;;;;;;8.57;6.30;;;1.80;73.30;;;;;;5047569;28;20357;-73
2021/01/26 02:02:07;;;;;;;;;;;1.80;73.30;;;;;;5048358;28;20063;-73
2021/01/26 02:04:37;;;;;;;8.38;5.95;;;1.80;73.30;;;;;;5046289;28;19919;-73
2021/01/26 02:07:04;;;;;;;7.05;6.32;;;1.80;73.20;;;;;;5046113;28;20025;-74
2021/01/26 02:09:41;;;;;;;9.52;6.03;;;1.80;73.20;;;;;;5047796;28;20404;-72
2021/01/26 02:12:10;;;;;;;8.85;6.45;;;1.80;73.30;;;;;;5048067;28;20136;-73
2021/01/26 02:14:47;;;;;;;9.43;5.90;;;1.80;73.30;;;;;;5046228;28;20116;-72
2021/01/26 02:17:40;;;;;;;8.45;6.05;;;1.80;73.30;;;;;;5064503;28;20509;-73
2021/01/26 02:20:50;;;;;;;7.10;6.40;;;1.80;73.30;;;;;;5050214;28;20032;-73
2021/01/26 02:23:47;;;;;;;6.90;5.68;;;1.90;73.50;;;;;;5047679;28;20033;-74
2021/01/26 02:26:34;;;;;;;8.93;5.93;;;1.80;73.30;;;;;;5030236;28;20461;-74
2021/01/26 02:29:07;;;;;;;8.38;6.47;;;1.80;73.30;;;;;;5045923;28;20036;-73
2021/01/26 02:32:04;;;;;;;5.57;4.97;;;1.90;73.50;;;;;;5040435;22;20046;-74
2021/01/26 02:34:54;;;;;;;7.97;6.30;;;1.90;73.50;;;;;;4989348;28;20509;-73
2021/01/26 02:37:39;;;;;;;8.90;6.00;;;1.90;73.50;;;;;;4992733;28;20035;-72
2021/01/26 02:40:05;;;;;;;5.32;4.82;;;1.90;73.40;;;;;;4990065;28;20049;-74
2021/01/26 02:42:56;;;;;;;7.15;5.72;;;1.90;73.40;;;;;;4987833;28;20177;-75
2021/01/26 02:45:37;;;;;;;7.20;5.20;;;1.90;73.40;;;;;;4987892;28;20460;-71
2021/01/26 02:48:21;;;;;;;8.48;5.50;;;1.90;73.40;;;;;;4957820;28;20186;-75
2021/01/26 02:51:10;;;;;;;9.23;6.32;;;1.90;73.40;;;;;;4962994;28;20027;-75
2021/01/26 02:53:48;;;;;;;12.00;6.35;;;1.90;73.40;;;;;;4960760;28;20050;-74
2021/01/26 02:57:05;;;;;;;9.38;6.18;;;1.90;73.40;;;;;;4952507;28;20038;-74
2021/01/26 03:00:10;;;;;;;5.85;4.88;;;1.90;73.40;;;;;;4952976;28;20035;-75
2021/01/26 03:02:43;;;;;;;8.00;5.07;;;2.00;73.60;;;;;;4952460;28;20043;-76
2021/01/26 03:05:35;;;;;;;6.60;4.93;;;2.00;73.60;;;;;;4952115;28;20113;-75
2021/01/26 03:08:08;;;;;;;6.70;5.15;;;1.90;73.40;;;;;;4953384;28;20463;-75
2021/01/26 03:10:41;;;;;;;8.93;5.68;;;2.00;73.60;;;;;;4953584;28;20031;-75
2021/01/26 03:13:11;;;;;;;5.78;5.22;;;2.00;73.60;;;;;;4952244;29;20049;-75
2021/01/26 03:15:46;;;;;;;8.25;4.00;;;2.00;73.60;;;;;;4942642;28;20035;-75
2021/01/26 03:18:31;;;;;;;9.80;5.70;;;2.00;73.60;;;;;;4971242;28;20026;-75
2021/01/26 03:21:02;;;;;;;7.97;5.32;;;2.00;73.70;;;;;;4986737;28;20455;-75
2021/01/26 03:23:53;;;;;;;6.80;5.80;;;2.00;73.70;;;;;;4987672;28;20529;-75
2021/01/26 03:26:21;;;;;;;5.88;4.93;;;2.00;73.70;;;;;;4972742;28;20482;-74
2021/01/26 03:28:53;;;;;;;5.43;4.90;;;2.00;73.60;;;;;;4987412;28;20458;-75
2021/01/26 03:31:22;;;;;;;9.68;6.35;;;2.00;73.70;;;;;;4971190;28;20332;-77
2021/01/26 03:33:52;;;;;;;5.65;4.95;;;2.00;73.70;;;;;;4987359;28;20046;-77
2021/01/26 03:36:18;;;;;;;9.48;4.80;;;2.00;73.70;;;;;;4987370;28;20035;-77
2021/01/26 03:38:45;;;;;;;5.90;5.28;;;2.00;73.70;;;;;;4972147;28;20041;-74
2021/01/26 03:41:12;;;;;;;6.00;4.75;;;2.00;73.70;;;;;;4972225;28;20031;-75
2021/01/26 03:43:38;;;;;;;7.80;5.25;;;2.00;73.70;;;;;;4955023;28;20035;-77
2021/01/26 03:46:21;;;;;;;5.60;4.78;;;2.10;73.90;;;;;;4972090;28;20125;-77
2021/01/26 03:49:19;;;;;;;6.45;4.85;;;2.10;73.90;;;;;;4972174;28;20502;-78
2021/01/26 03:52:26;;;;;;;6.70;4.65;;;2.10;73.90;;;;;;4971874;28;20038;-77
2021/01/26 03:55:06;;;;;;;6.75;4.35;;;2.10;73.90;;;;;;4966673;28;20201;-75
2021/01/26 03:57:59;;;;;;;6.15;4.57;;;2.10;73.80;;;;;;4972005;28;20034;-75
2021/01/26 04:00:37;;;;;;;6.00;4.88;;;2.10;73.80;;;;;;4971428;28;20022;-74
2021/01/26 04:03:46;;;;;;;8.00;4.50;;;2.10;73.80;;;;;;4972069;28;20557;-74
2021/01/26 04:06:21;;;;;;;5.22;4.45;;;2.10;73.80;;;;;;4970880;28;20031;-75
2021/01/26 04:08:54;;;;;;;5.55;4.20;;;2.10;73.80;;;;;;4971996;28;20481;-74
2021/01/26 04:11:28;;;;;;;5.65;4.65;;;2.10;73.80;;;;;;4971836;28;20178;-74
2021/01/26 04:13:56;;;;;;;6.40;4.20;;;2.10;73.80;;;;;;4986434;28;20027;-75
2021/01/26 04:16:26;;;;;;;6.03;4.50;;;2.10;73.90;;;;;;4981939;28;20031;-74
2021/01/26 04:18:54;;;;;;;4.80;3.80;;;2.10;73.90;;;;;;4989992;28;20038;-74
2021/01/26 04:21:21;;;;;;;5.60;4.20;;;2.20;74.10;;;;;;4989084;28;20542;-74
2021/01/26 04:23:56;;;;;;;4.82;4.20;;;2.20;74.10;;;;;;4973445;28;20573;-74
2021/01/26 04:26:25;;;;;;;9.18;3.80;;;2.10;73.90;;;;;;4990293;28;20026;-74
2021/01/26 04:28:51;;;;;;;5.40;4.10;;;2.10;73.90;;;;;;4990074;28;20498;-75
2021/01/26 04:31:19;;;;;;;5.40;4.18;;;2.20;74.10;;;;;;5005607;28;20026;-75
2021/01/26 04:33:45;;;;;;;4.85;3.85;;;2.20;74.10;;;;;;4989124;28;20053;-75
2021/01/26 04:36:14;;;;;;;4.90;3.80;;;2.20;74.10;;;;;;4990441;28;20030;-74
2021/01/26 04:38:40;;;;;;;7.63;4.65;;;2.20;74.10;;;;;;4990301;28;20100;-74
2021/01/26 04:41:28;;;;;;;3.95;3.53;;;2.20;74.10;;;;;;5005214;28;20368;-74
2021/01/26 04:44:29;;;;;;;4.70;4.20;;;2.20;74.10;;;;;;4988930;28;20253;-78
2021/01/26 04:47:18;;;;;;;4.93;4.38;;;2.20;74.10;;;;;;4990390;28;20375;-74
2021/01/26 04:49:57;;;;;;;4.45;3.90;;;2.30;74.20;;;;;;4988921;28;20023;-75
2021/01/26 04:52:54;;;;;;;6.53;4.07;;;2.30;74.20;;;;;;4988881;28;20031;-74
2021/01/26 04:55:26;;;;;;;3.88;3.58;;;2.30;74.20;;;;;;4990562;28;20359;-75
2021/01/26 04:58:08;;;;;;;4.28;3.88;;;2.30;74.20;;;;;;4989152;28;20037;-75
2021/01/26 05:00:40;;;;;;;7.03;3.83;;;2.30;74.20;;;;;;4989017;28;20087;-75
2021/01/26 05:03:24;;;;;;;4.57;3.90;;;2.30;74.20;;;;;;4990366;28;20043;-73
2021/01/26 05:05:56;;;;;;;4.65;3.65;;;2.30;74.30;;;;;;4972964;28;20037;-74
2021/01/26 05:08:28;;;;;;;7.78;3.88;;;2.30;74.20;;;;;;4990162;28;20434;-75
2021/01/26 05:11:20;;;;;;;4.45;3.75;;;2.30;74.20;;;;;;4989316;28;20054;-75
2021/01/26 05:14:10;;;;;;;5.97;3.17;;;2.30;74.20;;;;;;4990291;28;20023;-76
2021/01/26 05:16:43;;;;;;;6.97;3.22;;;2.30;74.30;;;;;;4976172;28;20053;-76
2021/01/26 05:19:18;;;;;;;4.32;3.33;;;2.30;74.20;;;;;;4969467;28;20153;-76
2021/01/26 05:22:09;;;;;;;4.35;3.33;;;2.30;74.30;;;;;;4970391;28;20137;-75
2021/01/26 05:24:44;;;;;;;3.67;3.38;;;2.30;74.30;;;;;;4963026;28;20042;-75
2021/01/26 05:27:10;;;;;;;3.60;3.25;;;2.30;74.30;;;;;;4969126;28;20031;-75
2021/01/26 05:29:36;;;;;;;5.75;3.30;;;2.30;74.30;;;;;;4985730;28;20039;-74
2021/01/26 05:32:06;;;;;;;4.40;3.70;;;2.30;74.30;;;;;;4969613;28;20485;-74
2021/01/26 05:34:34;;;;;;;3.97;3.47;;;2.30;74.30;;;;;;4970968;28;20041;-76
2021/01/26 05:37:03;;;;;;;5.82;4.03;;;2.30;74.30;;;;;;4970903;28;20026;-75
2021/01/26 05:39:54;;;;;;;3.90;3.50;;;2.30;74.30;;;;;;4970281;28;20114;-76
2021/01/26 05:42:22;;;;;;;6.63;3.72;;;2.40;74.50;;;;;;4969963;28;20050;-75
2021/01/26 05:45:15;;;;;;;3.42;3.15;;;2.40;74.50;;;;;;4978877;28;20114;-76
2021/01/26 05:47:41;;;;;;;3.13;2.83;;;2.40;74.50;;;;;;4952030;28;20494;-75
2021/01/26 05:50:28;;;;;;;5.05;3.47;;;2.40;74.50;;;;;;4956287;28;20575;-74
2021/01/26 05:53:03;;;;;;;4.13;3.72;;;2.40;74.50;;;;;;4946835;28;20046;-76
2021/01/26 05:55:32;;;;;;;7.15;2.75;;;2.40;74.50;;;;;;4960901;28;20114;-76
2021/01/26 05:58:07;;;;;;;5.20;3.70;;;2.40;74.40;;;;;;4962192;28;20486;-75
2021/01/26 06:00:33;;;;;;;4.10;3.13;;;2.40;74.50;;;;;;4947619;28;20067;-75
2021/01/26 06:03:11;;;;;;;5.25;4.10;;;2.40;74.50;;;;;;4945811;28;20039;-75
2021/01/26 06:05:40;;;;;;;4.05;3.33;;;2.40;74.50;;;;;;4949853;28;20043;-75
2021/01/26 06:08:14;;;;;;;7.18;3.10;;;2.40;74.50;;;;;;4954385;28;20027;-75
2021/01/26 06:10:42;;;;;;;3.38;3.05;;;2.40;74.50;;;;;;4955528;28;20038;-74
2021/01/26 06:13:09;;;;;;;4.88;3.95;;;2.40;74.50;;;;;;4951079;28;20361;-73
2021/01/26 06:15:38;;;;;;;4.28;3.70;;;2.40;74.50;;;;;;4950151;28;20049;-74
2021/01/26 06:18:13;;;;;;;3.42;3.03;;;2.50;74.70;;;;;;4954213;28;20320;-73
2021/01/26 06:20:40;;;;;;;4.18;3.28;;;2.50;74.70;;;;;;4946604;28;20036;-73
2021/01/26 06:23:17;;;;;;;4.03;3.08;;;2.40;74.50;;;;;;4969747;28;20035;-73
2021/01/26 06:25:54;;;;;;;5.65;3.50;;;2.50;74.70;;;;;;4948513;28;20361;-72
2021/01/26 06:29:04;;;;;;;4.30;3.90;;;2.50;74.70;;;;;;4951269;28;20483;-72
2021/01/26 06:31:57;;;;;;;3.83;3.42;;;2.50;74.70;;;;;;4942563;28;20525;-74
2021/01/26 06:34:48;;;;;;;4.10;3.58;;;2.50;74.70;;;;;;4951545;28;20078;-73
2021/01/26 06:37:14;;;;;;;6.45;3.65;;;2.50;74.70;;;;;;4956564;28;20042;-73
2021/01/26 06:39:53;;;;;;;4.38;3.60;;;2.50;74.60;;;;;;4956432;28;20027;-74
2021/01/26 06:42:33;;;;;;;4.35;3.60;;;2.50;74.70;;;;;;4937680;28;20117;-74
2021/01/26 06:45:03;;;;;;;4.53;3.03;;;2.50;74.70;;;;;;4961628;28;20050;-74
2021/01/26 06:47:50;;;;;;;4.75;3.45;;;2.50;74.70;;;;;;4966396;28;20098;-73
2021/01/26 06:50:37;;;;;;;5.05;4.07;;;2.50;74.70;;;;;;4963028;28;20038;-74
2021/01/26 06:53:22;;;;;;;3.72;3.22;;;2.50;74.60;;;;;;4955962;28;20430;-74
2021/01/26 06:56:05;;;;;;;4.00;3.60;;;2.60;74.80;;;;;;4967827;28;20125;-73
2021/01/26 06:58:44;;;;;;;4.05;3.33;;;2.60;74.80;;;;;;4974839;28;20042;-73
2021/01/26 07:01:28;;;;;;;4.25;3.33;;;2.60;74.80;;;;;;4962698;28;20075;-72
2021/01/26 07:04:25;;;;;;;4.00;3.65;;;2.60;74.80;;;;;;4965011;28;20344;-72
2021/01/26 07:07:12;;;;;;;5.68;3.30;;;2.60;74.80;;;;;;4967966;28;20537;-72
2021/01/26 07:09:50;;;;;;;5.65;3.80;;;2.60;74.80;;;;;;4967573;28;20205;-73
2021/01/26 07:12:28;;;;;;;4.25;3.75;;;2.60;74.80;;;;;;4964854;28;20035;-73
2021/01/26 07:14:57;;;;;;;3.38;2.88;;;2.60;74.80;;;;;;4947959;28;20027;-74
2021/01/26 07:18:00;;;;;;;3.80;3.50;;;2.60;74.80;;;;;;4982097;28;20239;-74
2021/01/26 07:20:44;;;;;;;3.78;3.03;;;2.60;74.80;;;;;;4963268;28;20561;-74
2021/01/26 07:23:13;;;;;;;4.70;3.40;;;2.60;74.80;;;;;;4958111;28;20098;-74
2021/01/26 07:25:57;;;;;;;6.25;3.63;;;2.60;74.80;;;;;;4968037;28;20280;-74
2021/01/26 07:28:58;;;;;;;3.80;3.50;;;2.60;74.80;;;;;;4966239;28;20034;-73
2021/01/26 07:31:33;;;;;;;3.47;3.17;;;2.70;75.00;;;;;;4944927;28;20517;-74
2021/01/26 07:34:19;;;;;;;4.22;3.80;;;2.70;75.00;;;;;;4965725;28;20038;-74
2021/01/26 07:36:53;;;;;;;3.88;3.58;;;2.70;75.00;;;;;;4967406;28;20213;-73
2021/01/26 07:39:26;;;;;;;5.13;4.03;;;2.70;75.00;;;;;;4951948;28;20042;-72
2021/01/26 07:42:13;;;;;;;4.27;3.80;;;2.80;75.10;;;;;;4946988;28;20058;-73
2021/01/26 07:45:13;;;;;;;3.80;3.47;;;2.70;74.90;;;;;;4931219;29;20035;-75
2021/01/26 07:48:02;;;;;;;4.70;3.75;;;2.80;75.10;;;;;;4931345;28;20051;-72
2021/01/26 07:50:38;;;;;;;4.13;3.75;;;2.80;75.10;;;;;;4959011;28;20153;-74
2021/01/26 07:53:16;;;;;;;4.43;3.33;;;2.90;75.30;;;;;;4944500;28;20059;-74
2021/01/26 07:56:10;;;;;;;5.60;3.35;;;2.90;75.30;;;;;;4946430;29;20124;-74
2021/01/26 07:58:37;;;;;;;5.60;3.92;;;2.90;75.20;;;;;;4938784;28;20503;-74
2021/01/26 08:01:04;;;;;;;5.75;3.70;;;3.00;75.40;;;;;;4965350;28;20041;-74
2021/01/26 08:03:31;;;;;;;5.43;3.63;;;3.00;75.40;;;;;;4963413;28;20027;-75
2021/01/26 08:05:59;;;;;;;4.15;3.17;;;3.00;75.40;;;;;;4978233;28;20031;-74
2021/01/26 08:08:32;;;;;;;3.78;3.35;;;3.00;75.40;;;;;;4966754;28;20039;-74
2021/01/26 08:11:21;;;;;;;4.07;3.10;;;3.10;75.50;;;;;;4967428;28;20041;-73
2021/01/26 08:13:59;;;;;;;3.58;3.28;;;3.10;75.50;;;;;;4951323;28;20058;-74
2021/01/26 08:16:51;;;;;;;5.75;3.08;;;3.10;75.40;;;;;;4931077;29;20031;-73
2021/01/26 08:19:23;;;;;;;5.65;3.10;;;3.20;75.60;;;;;;4974398;28;20035;-74
2021/01/26 08:21:49;;;;;;;3.70;3.30;;;3.20;75.50;;;;;;4947433;29;20098;-74
2021/01/26 08:24:21;;;;;;;3.92;3.05;;;3.20;75.50;;;;;;4965809;28;20035;-73
2021/01/26 08:26:49;;;;;;;3.80;3.40;;;3.20;75.50;;;;;;4967267;28;20022;-74
2021/01/26 08:29:38;;;;;;;3.47;3.17;;;3.30;75.70;;;;;;4967196;28;20034;-74
2021/01/26 08:32:22;;;;;;;4.43;3.65;;;3.30;75.80;;;;;;4947721;28;20038;-75
2021/01/26 08:34:57;;;;;;;;;;;3.30;75.70;;;;;;4966084;28;20049;-74
2021/01/26 08:37:45;;;;;;;3.75;3.13;;;3.30;75.70;;;;;;4966550;28;19909;-74
2021/01/26 08:40:17;;;;;;;4.47;3.28;;;3.40;75.70;;;;;;4945155;29;20130;-73
2021/01/26 08:42:44;;;;;;;3.50;3.20;;;3.40;75.80;;;;;;4948395;28;20065;-75
2021/01/26 08:45:39;;;;;;;3.30;3.00;;;3.40;75.80;;;;;;4947133;28;20054;-73
2021/01/26 08:48:25;;;;;;;3.47;3.17;;;3.50;76.00;;;;;;4951264;28;20039;-73
2021/01/26 08:50:51;;;;;;;3.38;2.83;;;3.50;76.00;;;;;;4934361;28;20391;-76
2021/01/26 08:53:26;;;;;;;3.70;3.08;;;3.50;76.00;;;;;;4947393;28;20055;-75
2021/01/26 08:55:55;;;;;;;3.35;3.05;;;3.60;76.20;;;;;;4949336;28;20122;-73
2021/01/26 08:58:39;;;;;;;4.75;2.95;;;3.60;76.10;;;;;;4949383;28;20057;-75
2021/01/26 09:01:30;;;;;;;3.78;3.38;;;3.60;76.20;;;;;;4951687;28;20513;-74
2021/01/26 09:04:18;;;;;;;3.67;3.20;;;3.70;76.30;;;;;;4940216;28;20039;-73
2021/01/26 09:06:46;;;;;;;6.15;3.45;;;3.70;76.30;;;;;;4951218;28;20115;-74
2021/01/26 09:09:21;;;;;;;8.00;3.45;;;3.80;76.50;;;;;;4958452;28;20045;-74
2021/01/26 09:11:54;;;;;;;4.38;2.72;;;3.80;76.40;;;;;;4935171;29;20189;-74
2021/01/26 09:14:47;;;;;;;4.50;3.63;;;3.80;76.50;;;;;;4950851;28;20052;-73
2021/01/26 09:17:13;;;;;;;4.45;3.42;;;3.90;76.80;;;;;;4988671;28;20078;-74
2021/01/26 09:19:51;;;;;;;3.97;3.58;;;3.90;76.80;;;;;;4956478;28;20068;-74
2021/01/26 09:22:20;;;;;;;5.00;3.33;;;4.00;77.00;;;;;;4970979;28;20046;-75
2021/01/26 09:24:47;;;;;;;6.82;3.63;;;4.00;77.00;;;;;;4967340;28;20027;-74
2021/01/26 09:27:28;;;;;;;4.72;3.42;;;4.10;77.10;;;;;;4964476;28;20093;-74
2021/01/26 09:30:11;;;;;;;3.85;3.45;;;4.10;77.10;;;;;;4964448;28;20082;-74
2021/01/26 09:32:41;;;;;;;10.15;3.72;;;4.20;77.30;;;;;;4964067;28;20197;-74
2021/01/26 09:35:09;;;;;;;5.18;3.85;;;4.20;77.20;;;;;;4962209;28;20450;-73
2021/01/26 09:37:35;;;;;;;3.70;2.90;;;4.30;77.40;;;;;;4960879;28;20031;-75
2021/01/26 09:40:13;;;;;;;3.47;2.90;;;4.30;77.40;;;;;;4964372;28;20512;-74
2021/01/26 09:42:39;;;;;;;4.70;2.88;;;4.30;77.40;;;;;;4957348;28;20035;-74
2021/01/26 09:45:08;;;;;;;4.47;3.10;;;4.40;77.50;;;;;;4942422;28;20031;-74
2021/01/26 09:47:35;;;;;;;5.00;3.08;;;4.40;77.40;;;;;;4963825;28;20508;-73
2021/01/26 09:50:13;;;;;;;3.22;2.78;;;4.50;77.60;;;;;;4965852;28;20037;-74
2021/01/26 09:52:41;;;;;;;3.00;2.63;;;4.50;77.60;;;;;;4965562;28;20031;-73
2021/01/26 09:55:14;;;;;;;4.05;2.85;;;4.50;77.60;;;;;;4964702;28;20407;-73
2021/01/26 09:57:41;;;;;;;2.80;2.55;;;4.60;77.70;;;;;;4964060;28;20069;-73
2021/01/26 10:00:17;;;;;;;5.00;2.70;;;4.60;77.70;;;;;;4964334;28;20038;-73
2021/01/26 10:02:44;;;;;;;4.63;2.85;;;4.70;77.90;;;;;;4965021;28;20089;-75
2021/01/26 10:05:12;;;;;;;3.45;2.70;;;4.70;77.80;;;;;;4966749;28;20042;-72
2021/01/26 10:07:39;;;;;;;3.75;2.28;;;4.80;78.00;;;;;;4967367;28;20398;-74
2021/01/26 10:10:21;;;;;;;2.95;2.67;;;4.80;78.00;;;;;;4968107;28;20030;-76
2021/01/26 10:12:47;;;;;;;3.15;2.63;;;4.90;78.10;;;;;;4961403;28;20426;-74
2021/01/26 10:15:33;;;;;;;3.05;2.60;;;5.00;78.20;;;;;;4951389;28;20031;-74
2021/01/26 10:17:59;;;;;;;4.10;2.42;;;5.00;78.20;;;;;;4981349;28;20042;-75
2021/01/26 10:20:39;;;;;;;6.38;2.75;;;5.10;78.30;;;;;;4948007;28;20399;-74
2021/01/26 10:23:06;;;;;;;2.30;2.10;;;5.10;78.40;;;;;;4948214;28;20084;-74
2021/01/26 10:25:34;;;;;;;4.22;2.72;;;5.20;78.40;;;;;;4949614;28;20031;-74
2021/01/26 10:28:14;;;;;;;2.20;2.00;;;5.20;78.40;;;;;;4947678;28;20765;-74
2021/01/26 10:30:45;;;;;;;2.40;2.15;;;5.20;78.40;;;;;;4949571;28;20080;-73
2021/01/26 10:33:48;;;;;;;3.25;2.35;;;5.30;78.50;;;;;;4948207;28;20031;-73
2021/01/26 10:36:32;;;;;;;3.88;2.35;;;5.30;78.60;;;;;;4966222;28;20035;-74
2021/01/26 10:39:01;;;;;;;3.40;2.55;;;5.40;78.70;;;;;;4958209;28;20058;-75
2021/01/26 10:41:33;;;;;;;2.92;2.58;;;5.40;78.70;;;;;;4948149;28;20031;-73
2021/01/26 10:44:11;;;;;;;5.68;2.30;;;5.40;78.60;;;;;;4949176;28;20031;-78
2021/01/26 10:46:40;;;;;;;4.57;2.40;;;5.50;78.70;;;;;;4963654;28;20074;-72
2021/01/26 10:49:30;;;;;;;4.32;2.28;;;5.60;78.90;;;;;;4949566;28;20562;-73
2021/01/26 10:52:03;;;;;;;2.72;2.45;;;5.70;79.10;;;;;;4948770;28;20551;-74
2021/01/26 10:54:29;;;;;;;4.32;2.20;;;5.70;79.10;;;;;;4980053;28;20110;-73
2021/01/26 10:56:55;;;;;;;4.32;2.22;;;5.80;79.30;;;;;;4915954;29;20435;-74
2021/01/26 10:59:21;;;;;;;5.82;2.35;;;5.80;79.30;;;;;;4962093;28;20026;-75
2021/01/26 11:01:48;;;;;;;3.17;2.10;;;5.90;79.50;;;;;;4966607;28;20401;-74
2021/01/26 11:04:16;;;;;;;2.35;2.15;;;5.90;79.50;;;;;;4965791;28;20138;-73
2021/01/26 11:06:42;;;;;;;4.30;2.20;;;6.00;79.70;;;;;;4950406;28;20027;-73
2021/01/26 11:09:09;;;;;;;2.08;1.92;;;6.00;79.60;;;;;;4968281;28;20043;-73
2021/01/26 11:11:36;;;;;;;5.15;1.73;;;6.10;79.80;;;;;;4967266;28;20134;-73
2021/01/26 11:14:04;;;;;;;3.47;2.55;;;6.20;80.00;;;;;;4950796;28;20035;-75
2021/01/26 11:16:30;;;;;;;4.20;2.20;;;6.20;80.00;;;;;;4973096;28;20092;-75
2021/01/26 11:18:59;;;;;;;3.67;2.22;;;6.20;79.90;;;;;;4988891;28;20027;-73
2021/01/26 11:21:26;;;;;;;4.65;2.00;;;6.30;80.00;;;;;;4947282;28;20054;-73
2021/01/26 11:23:53;;;;;;;3.45;1.90;;;6.30;80.00;;;;;;4962309;28;20066;-74
2021/01/26 11:26:21;;;;;;;2.13;1.92;;;6.30;80.00;;;;;;4967674;28;20078;-74
2021/01/26 11:28:48;;;;;;;2.15;1.95;;;6.30;79.90;;;;;;4967317;28;20043;-74
2021/01/26 11:31:16;;;;;;;2.67;1.73;;;6.40;80.10;;;;;;4967565;28;20482;-75
2021/01/26 11:33:42;;;;;;;2.22;1.63;;;6.40;80.10;;;;;;4966050;28;20035;-73
2021/01/26 11:36:10;;;;;;;2.50;2.20;;;6.40;80.20;;;;;;4967879;28;20154;-72
2021/01/26 11:38:36;;;;;;;1.52;1.42;;;6.40;80.20;;;;;;4950315;28;20475;-72
2021/01/26 11:41:04;;;;;;;2.97;1.98;;;6.40;80.10;;;;;;4965592;28;20041;-71
2021/01/26 11:43:30;;;;;;;2.25;2.05;;;6.50;80.30;;;;;;4967992;28;20121;-73
2021/01/26 11:45:57;;;;;;;2.15;1.95;;;6.50;80.30;;;;;;4966115;28;20038;-74
2021/01/26 11:48:24;;;;;;;3.53;2.10;;;6.60;80.40;;;;;;4949667;28;20030;-72
2021/01/26 11:50:50;;;;;;;2.10;1.90;;;6.70;80.50;;;;;;4966010;28;20034;-72
2021/01/26 11:53:17;;;;;;;4.72;2.20;;;6.70;80.40;;;;;;4981709;28;20038;-73
2021/01/26 11:55:44;;;;;;;2.13;1.88;;;6.80;80.50;;;;;;4965683;28;20470;-74
2021/01/26 11:58:11;;;;;;;2.92;1.77;;;6.80;80.40;;;;;;4966787;28;20415;-76
2021/01/26 12:00:38;;;;;;;3.78;3.13;;;6.90;80.40;;;;;;4963666;28;20027;-73
2021/01/26 12:03:04;;;;;;;7.07;2.67;;;6.90;80.40;;;;;;4962601;28;20534;-74
2021/01/26 12:05:33;;;;;;;2.60;1.95;;;6.90;80.30;;;;;;4966991;28;20033;-73
2021/01/26 12:07:59;;;;;;;4.72;1.92;;;6.90;80.30;;;;;;4979672;28;20105;-75
2021/01/26 12:10:25;;;;;;;4.63;2.35;;;6.90;80.30;;;;;;4959240;28;20030;-77
2021/01/26 12:12:52;;;;;;;2.60;2.38;;;6.90;80.40;;;;;;4965553;28;20069;-74
2021/01/26 12:15:27;;;;;;;2.13;1.92;;;6.90;80.40;;;;;;4967371;28;20063;-74
2021/01/26 12:17:53;;;;;;;3.58;2.08;;;7.00;80.60;;;;;;4981787;28;20030;-76
2021/01/26 12:20:20;;;;;;;2.13;1.92;;;7.00;80.50;;;;;;4945609;28;20451;-72
2021/01/26 12:22:46;;;;;;;2.45;2.20;;;7.10;80.70;;;;;;4946001;28;20040;-75
2021/01/26 12:25:14;;;;;;;2.63;2.08;;;7.20;80.80;;;;;;4929534;28;20035;-74
2021/01/26 12:27:40;;;;;;;2.95;2.67;;;7.20;80.70;;;;;;4929422;29;20043;-74
2021/01/26 12:30:07;;;;;;;3.42;2.20;;;7.30;80.80;;;;;;4948149;28;20062;-74
2021/01/26 12:32:33;;;;;;;2.67;1.90;;;7.30;80.70;;;;;;4965070;28;20034;-75
2021/01/26 12:35:02;;;;;;;2.08;1.77;;;7.40;80.80;;;;;;4966579;28;20081;-76
2021/01/26 12:37:28;;;;;;;2.92;2.40;;;7.40;80.70;;;;;;4949217;28;20034;-76
2021/01/26 12:39:54;;;;;;;2.05;1.80;;;7.40;80.60;;;;;;4978223;28;20376;-74
2021/01/26 12:42:20;;;;;;;3.40;2.10;;;7.50;80.80;;;;;;4946734;28;20039;-73
2021/01/26 12:44:47;;;;;;;2.80;2.40;;;7.60;80.90;;;;;;4964482;28;20030;-74
2021/01/26 12:47:13;;;;;;;2.30;1.88;;;7.60;80.80;;;;;;4966289;28;20419;-74
2021/01/26 12:49:39;;;;;;;2.05;1.88;;;7.70;80.90;;;;;;4964055;28;20475;-77
2021/01/26 12:52:05;;;;;;;2.03;1.85;;;7.70;80.80;;;;;;4964484;28;20085;-74
2021/01/26 12:54:31;;;;;;;1.92;1.80;;;7.80;80.90;;;;;;4964606;28;20031;-73
2021/01/26 12:56:57;;;;;;;2.60;2.10;;;7.70;80.60;;;;;;4965109;28;20037;-73
2021/01/26 12:59:23;;;;;;;3.03;2.17;;;7.70;80.60;;;;;;4965873;28;20117;-74
2021/01/26 13:01:49;;;;;;;3.95;2.25;;;7.70;80.50;;;;;;4964637;28;20391;-73
2021/01/26 13:04:15;;;;;;;7.85;2.92;;;7.70;80.50;;;;;;4965617;28;20041;-75
2021/01/26 13:06:41;;;;;;;4.10;3.30;;;7.70;80.50;;;;;;4981209;28;20046;-74
2021/01/26 13:09:07;;;;;;;5.07;2.95;;;7.70;80.50;;;;;;4966330;28;20042;-76
2021/01/26 13:11:34;;;;;;;5.88;2.97;;;7.70;80.40;;;;;;4963934;28;20035;-74
2021/01/26 13:14:00;;;;;;;5.30;3.38;;;7.70;80.50;;;;;;4964606;28;20031;-75
2021/01/26 13:16:26;;;;;;;5.95;2.95;;;7.80;80.90;;;;;;4964401;28;20482;-74
2021/01/26 13:18:52;;;;;;;4.32;3.08;;;7.80;80.90;;;;;;4977314;28;20039;-74
2021/01/26 13:21:19;;;;;;;8.00;3.55;;;7.80;80.90;;;;;;4944457;28;20509;-73
2021/01/26 13:23:45;;;;;;;4.93;3.15;;;7.90;81.00;;;;;;4959015;28;20430;-74
2021/01/26 13:26:11;;;;;;;5.38;3.50;;;7.90;81.00;;;;;;4948927;28;20961;-73
2021/01/26 13:28:37;;;;;;;3.30;2.65;;;8.00;81.20;;;;;;4964985;28;20031;-77
2021/01/26 13:31:03;;;;;;;5.03;2.63;;;8.00;81.20;;;;;;4965344;28;20071;-73